Time;durP1;ratioP1;P1;durP2;ratioP2;P2;SDS_P1;SDS_P2;PMS_P1;PMS_P2;Temp;Humidity;BMP_temperature;BMP_pressure;BME280_temperature;BME280_humidity;BME280_pressure;Samples;Min_cycle;Max_cycle;Signal;HPM_P1;HPM_P2
2022/09/14 00:01:08;;;;;;;7.47;3.83;;;;;;;21.32;45.75;101107.38;5019039;28;20029;-82
2022/09/14 00:03:33;;;;;;;8.10;3.83;;;;;;;21.38;45.52;101105.84;5019013;28;20456;-83
2022/09/14 00:06:04;;;;;;;10.80;4.00;;;;;;;21.28;45.61;101104.53;5013499;28;20125;-83
2022/09/14 00:08:29;;;;;;;19.80;6.05;;;;;;;21.31;45.63;101102.97;5049547;28;20028;-82
2022/09/14 00:10:55;;;;;;;9.02;3.70;;;;;;;21.39;45.26;101098.34;5032384;28;20041;-81
2022/09/14 00:13:20;;;;;;;11.75;4.05;;;;;;;21.35;45.41;101089.16;5032863;28;20034;-81
2022/09/14 00:15:46;;;;;;;13.48;4.20;;;;;;;21.36;45.27;101085.19;5032786;28;20072;-82
2022/09/14 00:18:11;;;;;;;5.35;2.80;;;;;;;21.34;44.88;101080.00;5032660;28;20391;-85
2022/09/14 00:20:38;;;;;;;14.52;4.30;;;;;;;21.32;45.14;101076.81;5034045;28;20472;-84
2022/09/14 00:23:04;;;;;;;10.10;3.55;;;;;;;21.33;44.99;101075.63;5032884;28;20060;-82
2022/09/14 00:25:29;;;;;;;8.90;3.50;;;;;;;21.18;45.15;101079.38;5032331;28;20026;-82
2022/09/14 00:27:56;;;;;;;8.48;3.47;;;;;;;21.17;45.30;101075.78;5032349;28;20025;-81
2022/09/14 00:30:22;;;;;;;10.02;4.07;;;;;;;21.03;45.32;101070.84;5032618;28;20026;-82
2022/09/14 00:32:48;;;;;;;10.10;4.13;;;;;;;21.03;45.18;101070.84;5049283;28;20060;-82
2022/09/14 00:35:13;;;;;;;8.80;3.97;;;;;;;21.01;45.41;101066.84;5032549;28;20079;-81
2022/09/14 00:37:39;;;;;;;9.30;3.35;;;;;;;21.07;45.20;101068.09;5033801;28;20137;-83
2022/09/14 00:40:05;;;;;;;9.85;3.90;;;;;;;21.03;45.03;101061.72;5033268;28;20065;-82
2022/09/14 00:42:31;;;;;;;9.50;3.60;;;;;;;20.96;45.30;101059.63;5031980;28;20436;-82
2022/09/14 00:45:18;;;;;;;9.48;4.15;;;;;;;20.91;45.24;101061.94;5031921;28;20107;-84
2022/09/14 00:47:46;;;;;;;8.38;4.32;;;;;;;20.96;45.17;101064.38;5032244;28;20116;-82
2022/09/14 00:50:13;;;;;;;10.52;4.68;;;;;;;21.00;44.95;101062.44;5031856;28;20051;-82
2022/09/14 00:52:43;;;;;;;11.32;3.90;;;;;;;20.86;45.43;101056.72;5032303;28;20033;-81
2022/09/14 00:55:12;;;;;;;9.48;4.03;;;;;;;20.89;45.31;101055.97;5029008;28;20026;-82
2022/09/14 00:57:45;;;;;;;9.07;4.35;;;;;;;20.83;45.24;101061.03;5013561;28;20030;-81
2022/09/14 01:00:14;;;;;;;11.07;5.10;;;;;;;20.83;45.25;101051.91;5012387;28;20123;-82
2022/09/14 01:02:39;;;;;;;10.40;3.63;;;;;;;20.76;45.31;101049.81;5016162;28;20373;-81
2022/09/14 01:05:06;;;;;;;9.48;4.70;;;;;;;20.78;45.28;101047.47;5028488;28;20048;-83
2022/09/14 01:07:41;;;;;;;8.45;4.43;;;;;;;20.77;45.27;101043.88;5030914;28;20026;-82
2022/09/14 01:10:17;;;;;;;12.18;4.50;;;;;;;20.78;45.18;101048.28;5032585;28;20042;-82
2022/09/14 01:13:01;;;;;;;7.72;3.67;;;;;;;20.71;45.21;101037.06;5031779;28;20048;-83
2022/09/14 01:15:47;;;;;;;9.45;4.13;;;;;;;20.63;45.25;101029.00;5016844;28;20112;-83
2022/09/14 01:18:36;;;;;;;11.88;4.60;;;;;;;20.59;45.39;101031.72;5013314;28;20053;-82
2022/09/14 01:21:34;;;;;;;9.63;4.63;;;;;;;20.57;45.38;101030.50;5028339;28;20033;-82
2022/09/14 01:24:25;;;;;;;10.55;5.00;;;;;;;20.49;45.41;101033.19;5014759;28;20477;-82
2022/09/14 01:27:00;;;;;;;8.32;4.78;;;;;;;20.51;45.42;101027.25;5026782;28;20051;-82
2022/09/14 01:29:55;;;;;;;10.38;4.30;;;;;;;20.55;45.21;101030.84;5047869;28;20029;-83
2022/09/14 01:32:29;;;;;;;12.27;4.32;;;;;;;20.55;45.12;101030.06;5030504;28;20037;-82
2022/09/14 01:35:15;;;;;;;9.77;4.22;;;;;;;20.57;45.14;101030.50;5031552;28;20029;-82
2022/09/14 01:37:52;;;;;;;8.90;5.20;;;;;;;20.55;45.13;101027.28;5030662;28;20028;-81
2022/09/14 01:40:32;;;;;;;11.18;5.50;;;;;;;20.49;45.58;101037.94;5032816;28;20076;-84
2022/09/14 01:43:09;;;;;;;15.98;5.57;;;;;;;20.49;45.70;101030.41;5058775;28;20034;-84
2022/09/14 01:45:41;;;;;;;11.55;5.90;;;;;;;20.46;45.64;101033.91;5031401;28;20026;-83
2022/09/14 01:48:09;;;;;;;9.88;5.20;;;;;;;20.49;45.58;101027.63;5031292;28;20026;-82
2022/09/14 01:50:42;;;;;;;14.90;5.47;;;;;;;20.48;45.67;101026.03;5031197;28;20022;-82
2022/09/14 01:53:21;;;;;;;8.05;4.50;;;;;;;20.55;45.54;101027.28;5031423;28;20029;-81
2022/09/14 01:55:57;;;;;;;12.25;5.13;;;;;;;20.47;45.65;101035.50;5031441;28;20029;-81
2022/09/14 01:58:29;;;;;;;10.10;4.70;;;;;;;20.49;45.44;101027.63;5032608;28;20036;-81
2022/09/14 02:00:56;;;;;;;9.90;4.70;;;;;;;20.48;45.42;101020.47;5031218;28;20029;-81
2022/09/14 02:03:27;;;;;;;11.68;4.60;;;;;;;20.53;45.40;101019.34;5031098;28;20025;-81
2022/09/14 02:05:59;;;;;;;14.18;4.50;;;;;;;20.53;45.38;101013.00;5028266;28;20391;-81
2022/09/14 02:08:28;;;;;;;12.05;4.82;;;;;;;20.48;45.41;101012.16;5021311;28;20088;-81
2022/09/14 02:10:56;;;;;;;11.15;4.57;;;;;;;20.23;45.90;101016.47;5024807;28;20037;-82
2022/09/14 02:13:22;;;;;;;15.10;5.13;;;;;;;20.32;45.59;101017.00;5030747;28;20140;-83
2022/09/14 02:15:47;;;;;;;12.15;4.88;;;;;;;20.38;45.49;101017.50;5030446;28;20057;-83
2022/09/14 02:18:13;;;;;;;10.88;4.05;;;;;;;20.38;45.51;101017.50;5030691;28;20053;-81
2022/09/14 02:20:47;;;;;;;10.85;4.68;;;;;;;20.44;45.31;101011.28;5012279;28;20034;-81
2022/09/14 02:23:13;;;;;;;7.22;4.72;;;;;;;20.38;45.56;101011.94;5011345;28;20018;-82
2022/09/14 02:25:42;;;;;;;13.02;4.88;;;;;;;20.48;45.50;101014.94;5018781;28;20034;-81
2022/09/14 02:28:07;;;;;;;12.75;5.18;;;;;;;20.53;45.25;101021.31;5011397;28;20480;-83
2022/09/14 02:30:51;;;;;;;11.35;5.10;;;;;;;20.55;45.48;101016.19;5011041;28;20045;-82
2022/09/14 02:33:22;;;;;;;12.00;5.80;;;;;;;20.62;45.48;101022.63;5012580;28;20034;-81
2022/09/14 02:35:53;;;;;;;15.77;5.20;;;;;;;20.81;45.20;101032.03;5025718;28;20472;-81
2022/09/14 02:38:39;;;;;;;14.85;5.38;;;;;;;20.83;45.12;101027.69;5030688;28;20037;-82
2022/09/14 02:41:07;;;;;;;10.05;5.18;;;;;;;20.91;45.12;101023.84;5030886;28;20086;-82
2022/09/14 02:43:48;;;;;;;14.77;5.63;;;;;;;20.99;45.17;101014.44;5030050;28;20472;-81
2022/09/14 02:46:43;;;;;;;12.35;5.82;;;;;;;20.95;45.45;101013.59;5013491;28;20033;-82
2022/09/14 02:49:26;;;;;;;12.57;6.13;;;;;;;21.00;45.46;101024.34;5031373;28;20119;-82
2022/09/14 02:52:19;;;;;;;12.35;6.00;;;;;;;21.04;45.30;101014.09;5027436;28;20036;-84
2022/09/14 02:55:08;;;;;;;15.73;5.43;;;;;;;21.14;45.27;101012.63;5027911;28;20125;-83
2022/09/14 02:58:01;;;;;;;19.35;5.70;;;;;;;21.22;45.13;101010.72;5033792;28;20358;-83
2022/09/14 03:00:28;;;;;;;12.45;6.38;;;;;;;21.25;45.18;101012.78;5017893;28;20033;-83
2022/09/14 03:02:53;;;;;;;13.48;5.72;;;;;;;21.31;45.03;101006.53;5033770;28;20029;-83
2022/09/14 03:05:19;;;;;;;11.05;6.63;;;;;;;;;;5033609;28;20041;-82
2022/09/14 03:07:45;;;;;;;12.98;5.70;;;;;;;21.33;45.26;101000.59;5034016;28;20029;-82
2022/09/14 03:10:10;;;;;;;12.02;4.88;;;;;;;21.38;45.16;100997.44;5030788;28;20119;-84
2022/09/14 03:12:40;;;;;;;10.85;5.85;;;;;;;21.34;45.42;101002.19;5021825;28;20088;-82
2022/09/14 03:15:06;;;;;;;13.45;5.85;;;;;;;21.40;45.51;100999.88;5014117;28;20042;-82
2022/09/14 03:17:31;;;;;;;8.88;5.45;;;;;;;21.31;45.84;100994.59;5032628;28;20040;-82
2022/09/14 03:19:57;;;;;;;11.85;4.90;;;;;;;21.44;45.27;101001.50;5035051;28;20468;-84
2022/09/14 03:22:22;;;;;;;8.32;4.40;;;;;;;21.39;45.65;100999.06;5033724;28;20064;-81
2022/09/14 03:24:48;;;;;;;7.95;4.57;;;;;;;21.45;45.43;100997.53;5035001;28;20033;-82
2022/09/14 03:27:13;;;;;;;14.75;4.72;;;;;;;21.52;45.47;100992.03;5033741;28;20037;-82
2022/09/14 03:29:39;;;;;;;10.68;4.45;;;;;;;21.57;45.27;100988.94;5033595;28;20032;-81
2022/09/14 03:32:05;;;;;;;10.88;4.70;;;;;;;21.67;45.22;100992.19;5033509;28;20033;-82
2022/09/14 03:34:30;;;;;;;6.57;3.97;;;;;;;21.69;45.26;100981.47;5033468;28;20107;-82
2022/09/14 03:36:56;;;;;;;6.57;3.80;;;;;;;21.70;45.34;100986.69;5033500;28;20032;-84
2022/09/14 03:39:22;;;;;;;10.35;4.35;;;;;;;21.75;44.99;100977.16;5033317;28;20037;-82
2022/09/14 03:41:47;;;;;;;7.28;4.38;;;;;;;21.71;45.15;100979.13;5034588;28;20026;-82
2022/09/14 03:44:13;;;;;;;13.25;4.72;;;;;;;21.71;45.25;100973.56;5033312;28;20021;-82
2022/09/14 03:46:38;;;;;;;8.07;3.55;;;;;;;21.63;45.63;100977.47;5033165;28;20120;-84
2022/09/14 03:49:04;;;;;;;10.32;3.67;;;;;;;21.65;45.73;100978.69;5033239;28;20036;-83
2022/09/14 03:51:32;;;;;;;53.17;32.92;;;;;;;21.69;45.55;100973.13;5033180;28;20479;-84
2022/09/14 03:53:57;;;;;;;6.22;3.42;;;;;;;21.72;45.43;100970.41;5033277;28;20036;-84
2022/09/14 03:56:23;;;;;;;6.60;3.03;;;;;;;21.68;45.49;100966.78;5033235;28;20104;-84
2022/09/14 03:58:50;;;;;;;6.63;3.10;;;;;;;21.67;45.86;100976.31;5049238;28;20029;-81
2022/09/14 04:01:19;;;;;;;4.65;2.60;;;;;;;21.69;45.85;100971.19;5049335;28;20029;-82
2022/09/14 04:03:45;;;;;;;7.32;2.70;;;;;;;21.82;45.61;100968.91;5049519;28;20055;-81
2022/09/14 04:06:11;;;;;;;8.48;3.10;;;;;;;21.83;45.57;100971.28;5032915;28;20022;-82
2022/09/14 04:08:39;;;;;;;8.18;3.15;;;;;;;21.67;45.94;100973.53;5032890;28;20464;-84
2022/09/14 04:11:19;;;;;;;4.35;2.90;;;;;;;21.77;46.15;100975.63;5048828;28;20127;-82
2022/09/14 04:13:46;;;;;;;7.25;3.20;;;;;;;21.81;45.85;100972.88;5014578;28;20030;-83
2022/09/14 04:16:13;;;;;;;9.02;2.90;;;;;;;21.79;45.73;100966.91;5012870;28;20124;-83
2022/09/14 04:18:38;;;;;;;9.60;2.75;;;;;;;21.75;45.96;100964.06;5019267;28;20277;-82
2022/09/14 04:21:06;;;;;;;6.80;3.50;;;;;;;21.80;45.73;100966.50;5022165;28;20101;-83
2022/09/14 04:23:32;;;;;;;7.88;3.35;;;;;;;21.84;45.72;100967.34;5012956;28;20381;-83
2022/09/14 04:25:58;;;;;;;8.00;3.20;;;;;;;21.88;45.55;100964.59;5022360;28;20079;-84
2022/09/14 04:28:26;;;;;;;10.30;3.50;;;;;;;21.86;45.71;100961.41;5033680;28;20068;-82
2022/09/14 04:30:59;;;;;;;5.47;2.75;;;;;;;21.88;45.96;100959.03;5056286;28;20037;-82
2022/09/14 04:33:28;;;;;;;5.68;3.08;;;;;;;21.99;45.44;100964.66;5032404;28;20026;-83
2022/09/14 04:36:01;;;;;;;6.07;3.07;;;;;;;21.95;45.52;100963.84;5033669;28;20022;-82
2022/09/14 04:38:29;;;;;;;5.70;2.83;;;;;;;21.92;45.96;100967.41;5032179;28;20116;-82
2022/09/14 04:40:56;;;;;;;5.57;2.75;;;;;;;22.02;45.78;100970.28;5032156;28;20124;-82
2022/09/14 04:43:23;;;;;;;11.32;3.60;;;;;;;21.94;46.03;100968.63;5033628;28;20033;-81
2022/09/14 04:45:49;;;;;;;10.13;3.80;;;;;;;21.88;46.07;100972.94;5029783;28;20056;-82
2022/09/14 04:48:15;;;;;;;10.80;3.30;;;;;;;21.97;45.90;100969.81;5033356;28;20116;-82
2022/09/14 04:50:40;;;;;;;14.30;4.40;;;;;;;21.97;45.95;100967.84;5032091;28;20123;-82
2022/09/14 04:53:06;;;;;;;9.30;2.95;;;;;;;21.99;46.15;100964.66;5031700;28;20029;-82
2022/09/14 04:55:31;;;;;;;7.40;2.55;;;;;;;21.80;46.34;100957.38;5033365;28;20506;-81
2022/09/14 04:57:57;;;;;;;11.27;3.42;;;;;;;22.00;45.86;100961.50;5031908;28;20404;-82
2022/09/14 05:00:23;;;;;;;5.55;3.10;;;;;;;21.94;45.83;100968.63;5031922;28;20090;-82
2022/09/14 05:02:48;;;;;;;6.13;2.50;;;;;;;21.96;46.04;100968.22;5033191;28;20033;-82
2022/09/14 05:05:14;;;;;;;6.75;2.50;;;;;;;21.88;45.96;100972.94;5031878;28;20036;-81
2022/09/14 05:07:39;;;;;;;9.63;2.45;;;;;;;21.85;46.28;100974.50;5031775;28;20068;-84
2022/09/14 05:10:07;;;;;;;5.97;2.40;;;;;;;21.87;46.06;100976.91;5031434;28;20412;-82
2022/09/14 05:12:33;;;;;;;7.93;2.58;;;;;;;21.75;46.21;100972.41;5031024;28;20481;-82
2022/09/14 05:14:58;;;;;;;6.35;2.40;;;;;;;21.87;45.99;100969.34;5032957;28;20303;-82
2022/09/14 05:17:24;;;;;;;10.18;2.90;;;;;;;21.97;45.91;100967.03;5031562;28;20034;-83
2022/09/14 05:19:49;;;;;;;8.32;3.22;;;;;;;22.01;45.92;100968.66;5020152;28;20072;-82
2022/09/14 05:22:15;;;;;;;9.38;2.95;;;;;;;21.83;46.15;100962.16;5011849;28;20033;-84
2022/09/14 05:24:40;;;;;;;4.43;2.13;;;;;;;21.86;46.03;100951.06;5011461;28;20080;-82
2022/09/14 05:27:06;;;;;;;6.65;2.58;;;;;;;21.86;46.17;100950.28;5013082;28;20069;-82
2022/09/14 05:29:32;;;;;;;6.43;2.50;;;;;;;21.83;46.31;100951.03;5022459;28;20079;-81
2022/09/14 05:31:58;;;;;;;5.18;3.00;;;;;;;21.87;46.17;100947.09;5029827;28;20064;-83
2022/09/14 05:34:23;;;;;;;6.85;2.55;;;;;;;21.92;46.03;100948.72;5030606;28;20476;-83
2022/09/14 05:36:49;;;;;;;12.15;3.15;;;;;;;21.94;45.83;100959.47;5014751;28;20092;-81
2022/09/14 05:39:14;;;;;;;4.80;2.35;;;;;;;22.01;46.00;100968.66;5014050;28;20032;-82
2022/09/14 05:41:40;;;;;;;5.93;2.75;;;;;;;21.86;46.14;100955.84;5019877;28;20040;-82
2022/09/14 05:44:06;;;;;;;6.82;3.03;;;;;;;21.98;45.80;100966.66;5032323;28;20029;-82
2022/09/14 05:46:32;;;;;;;5.30;2.55;;;;;;;22.01;45.81;100965.09;5018383;28;20026;-82
2022/09/14 05:48:57;;;;;;;9.48;3.10;;;;;;;22.00;45.67;100964.31;5011633;28;20068;-83
2022/09/14 05:51:25;;;;;;;5.45;2.83;;;;;;;21.86;46.08;100961.41;5011433;28;20124;-82
2022/09/14 05:53:53;;;;;;;4.72;2.38;;;;;;;21.89;45.99;100961.41;5011474;28;20034;-82
2022/09/14 05:56:21;;;;;;;7.63;3.13;;;;;;;22.02;45.62;100963.91;5011513;28;20115;-82
2022/09/14 05:58:47;;;;;;;7.65;3.25;;;;;;;22.01;45.60;100973.44;5026199;28;20034;-83
2022/09/14 06:01:15;;;;;;;6.32;3.15;;;;;;;22.05;45.58;100963.91;5047406;28;20033;-82
2022/09/14 06:03:42;;;;;;;6.30;2.67;;;;;;;22.18;45.28;100966.44;5030983;28;20369;-84
2022/09/14 06:06:09;;;;;;;4.90;2.50;;;;;;;22.00;45.80;100964.31;5025532;28;20543;-84
2022/09/14 06:08:35;;;;;;;8.77;2.92;;;;;;;21.96;45.90;100973.78;5011889;28;20046;-82
2022/09/14 06:11:05;;;;;;;8.40;3.53;;;;;;;21.97;45.81;100967.84;5025516;28;20510;-83
2022/09/14 06:13:31;;;;;;;11.15;3.67;;;;;;;21.91;45.79;100961.03;5028048;28;20429;-82
2022/09/14 06:16:01;;;;;;;5.63;2.83;;;;;;;21.96;45.96;100973.78;5012498;28;20115;-83
2022/09/14 06:18:29;;;;;;;8.18;3.17;;;;;;;22.03;45.68;100974.66;5010927;28;20069;-81
2022/09/14 06:20:54;;;;;;;3.58;2.35;;;;;;;22.01;45.51;100977.03;5011114;28;20117;-87
2022/09/14 06:23:20;;;;;;;4.70;2.28;;;;;;;22.07;45.52;100983.03;5014480;28;20148;-82
2022/09/14 06:25:45;;;;;;;7.55;3.15;;;;;;;22.15;45.14;100971.59;5016224;28;20197;-81
2022/09/14 06:28:11;;;;;;;3.97;2.40;;;;;;;22.10;45.32;100971.94;5016175;28;20111;-80
2022/09/14 06:30:37;;;;;;;8.18;2.83;;;;;;;22.03;45.73;100983.00;5016277;28;20026;-81
2022/09/14 06:33:04;;;;;;;6.75;2.72;;;;;;;22.13;45.33;100975.94;5016095;28;20580;-81
2022/09/14 06:35:30;;;;;;;7.18;2.50;;;;;;;22.18;45.33;100988.69;5016133;28;20022;-81
2022/09/14 06:37:55;;;;;;;6.63;2.17;;;;;;;22.01;45.81;100990.13;5014686;28;20030;-82
2022/09/14 06:40:21;;;;;;;7.57;1.90;;;;;;;22.07;45.80;100983.84;5024703;28;20032;-81
2022/09/14 06:42:46;;;;;;;6.78;1.90;;;;;;;21.80;46.32;100991.53;5021138;28;20029;-79
2022/09/14 06:45:12;;;;;;;4.18;1.67;;;;;;;22.04;45.84;100989.34;5022117;28;20026;-82
2022/09/14 06:47:37;;;;;;;5.13;2.00;;;;;;;21.94;45.95;100987.28;5024823;28;20180;-85
2022/09/14 06:50:03;;;;;;;6.28;2.60;;;;;;;21.90;46.08;100992.81;5028948;28;20036;-83
2022/09/14 06:52:29;;;;;;;3.03;1.77;;;;;;;21.94;46.24;100987.28;5024611;28;20033;-83
2022/09/14 06:54:54;;;;;;;5.88;2.10;;;;;;;22.05;45.81;100990.94;5032311;28;20040;-82
2022/09/14 06:57:20;;;;;;;3.88;1.73;;;;;;;22.13;45.48;100996.22;5029267;28;20040;-83
2022/09/14 06:59:46;;;;;;;6.45;1.73;;;;;;;22.09;45.75;100994.59;5026343;28;20029;-84
2022/09/14 07:02:12;;;;;;;5.72;2.70;;;;;;;21.99;45.82;101004.44;5027836;28;20030;-81
2022/09/14 07:04:38;;;;;;;4.38;1.90;;;;;;;22.21;45.23;101002.63;5035444;28;20030;-82
2022/09/14 07:07:03;;;;;;;2.42;1.60;;;;;;;22.19;45.89;101004.22;5034329;28;20037;-83
2022/09/14 07:09:30;;;;;;;6.30;2.00;;;;;;;22.31;45.51;101001.13;5033304;28;20046;-79
2022/09/14 07:11:56;;;;;;;7.28;4.07;;;;;;;22.01;46.27;101015.97;5034684;28;20045;-80
2022/09/14 07:14:21;;;;;;;9.82;2.30;;;;;;;22.12;46.07;101019.66;5035387;28;20033;-87
2022/09/14 07:16:47;;;;;;;14.85;2.78;;;;;;;22.27;45.52;101019.78;5020626;28;20030;-83
2022/09/14 07:19:13;;;;;;;7.90;1.98;;;;;;;22.31;45.71;101020.63;5035620;28;20025;-85
2022/09/14 07:21:40;;;;;;;5.32;1.63;;;;;;;22.18;45.98;101017.31;5037895;28;20026;-82
2022/09/14 07:24:06;;;;;;;3.85;1.50;;;;;;;22.31;45.75;101021.41;5031014;28;20479;-91
2022/09/14 07:26:38;;;;;;;5.93;2.22;;;;;;;22.29;45.97;101034.94;5019954;28;20109;-80
2022/09/14 07:29:07;;;;;;;4.07;1.33;;;;;;;22.36;45.73;101028.59;5014517;28;20050;-83
2022/09/14 07:31:40;;;;;;;3.13;1.20;;;;;;;22.54;45.39;101023.97;5014883;28;20459;-82
2022/09/14 07:34:06;;;;;;;6.55;2.22;;;;;;;22.50;45.44;101031.47;5013538;28;20053;-83
2022/09/14 07:36:33;;;;;;;1.60;1.10;;;;;;;22.46;45.69;101027.88;5013933;28;20487;-82
2022/09/14 07:38:59;;;;;;;4.40;1.38;;;;;;;22.67;45.09;101030.81;5012263;28;20025;-83
2022/09/14 07:41:27;;;;;;;2.10;1.20;;;;;;;22.32;45.68;101027.78;5013644;28;20500;-82
2022/09/14 07:43:56;;;;;;;1.60;1.00;;;;;;;22.47;45.50;101029.47;5014664;28;20080;-83
2022/09/14 07:46:22;;;;;;;4.85;1.25;;;;;;;22.52;45.35;101028.31;5013705;28;20026;-84
2022/09/14 07:48:54;;;;;;;1.67;0.77;;;;;;;22.29;45.37;101026.56;5013543;28;20022;-83
2022/09/14 07:51:19;;;;;;;3.25;1.05;;;;;;;22.49;45.22;101021.53;5013557;28;20117;-84
2022/09/14 07:53:45;;;;;;;1.38;0.90;;;;;;;22.76;44.68;101024.09;5014080;28;20137;-85
2022/09/14 07:56:12;;;;;;;2.42;0.60;;;;;;;22.79;44.90;101032.47;5013802;28;20069;-83
2022/09/14 07:58:39;;;;;;;3.58;0.90;;;;;;;22.71;45.07;101028.84;5013488;28;20036;-83
2022/09/14 08:01:13;;;;;;;6.50;1.83;;;;;;;22.70;45.11;101027.25;5013422;28;20080;-84
2022/09/14 08:03:41;;;;;;;4.90;1.20;;;;;;;22.62;45.25;101024.81;5013158;28;20395;-85
2022/09/14 08:06:09;;;;;;;3.33;0.85;;;;;;;22.64;45.24;101025.22;5013657;28;20022;-87
2022/09/14 08:08:37;;;;;;;0.60;0.60;;;;;;;22.71;45.24;101026.06;5013437;28;20029;-84
2022/09/14 08:11:07;;;;;;;7.20;1.30;;;;;;;22.57;45.22;101034.31;5014262;28;20471;-84
2022/09/14 08:13:34;;;;;;;1.50;0.68;;;;;;;22.69;45.04;101033.22;5014524;28;20026;-84
2022/09/14 08:16:00;;;;;;;3.50;0.98;;;;;;;22.92;44.44;101032.97;5012992;28;20033;-84
2022/09/14 08:18:28;;;;;;;8.50;1.25;;;;;;;22.78;44.91;101022.53;5012922;28;20481;-85
2022/09/14 08:20:54;;;;;;;3.67;0.90;;;;;;;22.82;44.69;101026.13;5013163;28;20080;-86
2022/09/14 08:23:20;;;;;;;2.35;0.93;;;;;;;22.73;44.57;101024.88;5013656;28;20029;-83
2022/09/14 08:25:45;;;;;;;2.45;0.70;;;;;;;22.84;44.41;101020.97;5013210;28;20499;-84
2022/09/14 08:28:11;;;;;;;2.40;0.70;;;;;;;23.06;43.94;101019.13;5012878;28;20026;-84
2022/09/14 08:30:36;;;;;;;1.98;1.48;;;;;;;22.94;44.15;101009.09;5014109;28;20539;-86
2022/09/14 08:33:02;;;;;;;3.15;0.90;;;;;;;23.01;44.42;101019.47;5012787;28;20026;-84
2022/09/14 08:35:28;;;;;;;3.85;0.80;;;;;;;23.30;43.71;101019.59;5012721;28;20033;-84
2022/09/14 08:37:53;;;;;;;2.72;0.73;;;;;;;23.06;44.33;101023.91;5013894;28;20108;-84
2022/09/14 08:40:19;;;;;;;4.63;1.75;;;;;;;22.90;44.68;101024.22;5012852;28;20119;-82
2022/09/14 08:42:46;;;;;;;2.33;0.80;;;;;;;23.35;43.93;101022.00;5012978;28;20033;-83
2022/09/14 08:45:15;;;;;;;4.53;1.05;;;;;;;23.36;43.67;101026.41;5012441;28;20030;-84
2022/09/14 08:47:42;;;;;;;0.70;0.45;;;;;;;23.39;44.01;101011.66;5013922;28;20419;-86
2022/09/14 08:50:13;;;;;;;2.13;0.60;;;;;;;23.39;43.65;101020.03;5013035;28;20030;-84
2022/09/14 08:52:43;;;;;;;0.60;0.60;;;;;;;23.48;43.53;101018.44;5012377;28;20030;-84
2022/09/14 08:55:48;;;;;;;2.67;0.82;;;;;;;23.55;43.68;101017.69;5012389;28;20069;-82
2022/09/14 08:58:35;;;;;;;3.45;1.20;;;;;;;23.55;43.48;101017.69;5013894;28;20036;-88
2022/09/14 09:01:27;;;;;;;2.00;1.02;;;;;;;23.44;42.95;101014.06;5012706;28;20112;-84
2022/09/14 09:04:10;;;;;;;4.13;1.00;;;;;;;23.75;42.82;101010.59;5004431;28;20616;-84
2022/09/14 09:06:48;;;;;;;6.13;1.25;;;;;;;23.93;42.58;101015.38;5012270;28;20030;-84
2022/09/14 09:09:30;;;;;;;3.08;0.50;;;;;;;23.41;42.75;101006.47;5012086;28;20034;-83
2022/09/14 09:11:56;;;;;;;12.45;1.65;;;;;;;23.54;42.94;101002.94;5012030;28;20046;-84
2022/09/14 09:14:39;;;;;;;3.58;0.90;;;;;;;23.53;42.77;101011.69;5012166;28;20025;-85
2022/09/14 09:17:39;;;;;;;4.93;0.68;;;;;;;23.62;42.61;101026.09;5012130;28;20475;-85
2022/09/14 09:20:19;;;;;;;3.22;1.10;;;;;;;23.63;42.91;101021.31;5011951;28;20022;-84
2022/09/14 09:23:13;;;;;;;1.20;0.68;;;;;;;23.74;42.71;101030.50;5012076;28;20026;-84
2022/09/14 09:26:03;;;;;;;2.17;0.45;;;;;;;23.80;42.78;101026.94;5013404;28;20033;-87
2022/09/14 09:28:30;;;;;;;0.65;0.40;;;;;;;23.72;43.00;101011.34;5013362;28;20052;-85
2022/09/14 09:31:00;;;;;;;0.73;0.40;;;;;;;23.98;42.32;101023.34;5011509;28;20033;-84
2022/09/14 09:33:27;;;;;;;0.40;0.40;;;;;;;24.15;42.08;101025.34;5011799;28;20052;-83
2022/09/14 09:35:54;;;;;;;3.25;0.80;;;;;;;24.30;41.76;101020.56;5020018;28;20029;-85
2022/09/14 09:38:24;;;;;;;1.83;0.80;;;;;;;24.37;41.22;101022.59;5027810;28;20439;-83
2022/09/14 09:41:09;;;;;;;;;;;;;;;24.42;41.08;101022.97;5031382;28;20026;-83
2022/09/14 09:43:56;;;;;;;2.47;0.63;;;;;;;24.35;41.49;101023.78;5010343;28;19920;-83
2022/09/14 09:46:22;;;;;;;1.23;0.80;;;;;;;24.40;41.29;101021.78;5031041;28;20052;-83
2022/09/14 09:48:48;;;;;;;3.03;0.70;;;;;;;24.34;41.63;101021.41;5030511;28;20570;-84
2022/09/14 09:51:22;;;;;;;1.13;0.70;;;;;;;24.12;41.88;101028.94;5031107;28;20120;-84
2022/09/14 09:53:52;;;;;;;3.92;1.73;;;;;;;24.24;41.78;101033.31;5032224;28;20021;-83
2022/09/14 09:56:31;;;;;;;9.32;1.52;;;;;;;24.10;41.53;101025.75;5032302;28;20601;-84
2022/09/14 09:58:58;;;;;;;1.25;0.50;;;;;;;24.22;41.55;101024.56;5034339;28;20038;-83
2022/09/14 10:01:34;;;;;;;6.28;1.50;;;;;;;24.20;41.55;101019.38;5035127;28;20026;-82
2022/09/14 10:04:15;;;;;;;0.52;0.50;;;;;;;24.33;41.72;101022.56;5036381;28;20479;-82
2022/09/14 10:06:47;;;;;;;5.28;0.98;;;;;;;24.08;41.79;101006.59;5033617;28;20063;-83
2022/09/14 10:09:16;;;;;;;1.50;0.50;;;;;;;24.26;42.10;101019.78;5033432;28;20021;-82
2022/09/14 10:11:44;;;;;;;0.35;0.32;;;;;;;24.12;41.93;101026.16;5033246;28;20046;-83
2022/09/14 10:14:30;;;;;;;2.17;0.80;;;;;;;23.89;42.31;101023.75;5033589;28;20052;-83
2022/09/14 10:17:20;;;;;;;14.93;1.60;;;;;;;24.25;41.91;101018.97;5034492;28;20097;-84
2022/09/14 10:19:51;;;;;;;13.75;2.45;;;;;;;24.16;42.05;101021.34;5033620;28;20082;-84
2022/09/14 10:22:34;;;;;;;4.47;0.98;;;;;;;24.13;41.73;101029.75;5035820;28;20029;-82
2022/09/14 10:25:24;;;;;;;11.85;1.73;;;;;;;24.40;41.65;101024.56;5034872;28;20540;-83
2022/09/14 10:27:56;;;;;;;3.83;1.00;;;;;;;24.35;41.19;101021.00;5026798;28;20149;-84
2022/09/14 10:30:22;;;;;;;4.72;1.20;;;;;;;24.41;41.28;101028.94;5034379;28;20021;-84
2022/09/14 10:33:02;;;;;;;4.05;0.73;;;;;;;24.48;41.23;101028.94;5034250;28;20055;-85
2022/09/14 10:35:37;;;;;;;4.88;1.15;;;;;;;24.58;41.07;101025.34;5033022;28;20049;-83
2022/09/14 10:38:27;;;;;;;4.82;1.13;;;;;;;24.74;40.64;101036.09;5032672;28;20428;-84
2022/09/14 10:41:12;;;;;;;2.53;1.10;;;;;;;24.48;40.98;101037.31;5034146;28;20025;-84
2022/09/14 10:43:56;;;;;;;3.40;1.27;;;;;;;24.57;40.55;101040.53;5034367;28;20022;-84
2022/09/14 10:46:47;;;;;;;9.48;2.00;;;;;;;24.65;40.83;101044.09;5034431;28;20510;-83
2022/09/14 10:49:46;;;;;;;4.35;1.73;;;;;;;24.43;40.51;101049.72;5035857;28;20144;-83
2022/09/14 10:52:25;;;;;;;4.38;1.42;;;;;;;24.65;40.02;101042.09;5034378;28;20111;-84
2022/09/14 10:55:03;;;;;;;12.70;2.13;;;;;;;24.79;39.82;101047.66;5034467;28;20493;-84
2022/09/14 10:57:48;;;;;;;7.07;2.60;;;;;;;24.62;39.69;101035.31;5034149;28;20034;-84
2022/09/14 11:00:19;;;;;;;11.35;2.22;;;;;;;24.79;39.58;101047.66;5033879;28;19920;-84
2022/09/14 11:02:53;;;;;;;28.25;4.45;;;;;;;25.02;39.29;101047.19;5034303;28;20022;-84
2022/09/14 11:05:28;;;;;;;6.95;2.25;;;;;;;24.94;39.03;101047.59;5035736;28;20086;-84
2022/09/14 11:08:21;;;;;;;37.38;5.38;;;;;;;25.14;38.37;101043.19;5034235;28;20064;-84
2022/09/14 11:11:03;;;;;;;5.60;1.90;;;;;;;25.11;38.63;101052.38;5033807;28;20209;-84
2022/09/14 11:13:35;;;;;;;21.15;4.20;;;;;;;24.97;38.41;101042.03;5033967;28;20072;-83
2022/09/14 11:16:28;;;;;;;18.73;4.55;;;;;;;25.04;38.79;101042.03;5034010;28;20368;-83
2022/09/14 11:19:15;;;;;;;6.68;2.55;;;;;;;25.33;38.03;101041.91;5034021;28;20033;-84
2022/09/14 11:22:07;;;;;;;12.98;3.45;;;;;;;25.24;38.77;101041.53;5035255;28;20089;-82
2022/09/14 11:24:53;;;;;;;9.98;3.20;;;;;;;25.26;38.45;101048.34;5033401;28;20018;-83
2022/09/14 11:27:42;;;;;;;10.00;2.60;;;;;;;25.01;38.54;101058.75;5035110;28;20033;-83
2022/09/14 11:30:21;;;;;;;10.73;2.73;;;;;;;25.11;38.38;101053.19;5033757;28;20443;-83
2022/09/14 11:33:02;;;;;;;7.05;2.55;;;;;;;24.69;38.78;101056.84;5033635;28;20434;-82
2022/09/14 11:35:36;;;;;;;10.38;3.55;;;;;;;24.90;38.50;101065.19;5034948;28;20097;-83
2022/09/14 11:38:10;;;;;;;10.20;3.15;;;;;;;24.94;38.47;101064.38;5033409;28;20480;-82
2022/09/14 11:40:44;;;;;;;10.27;2.80;;;;;;;24.70;38.32;101061.22;5034709;28;20495;-83
2022/09/14 11:43:33;;;;;;;9.98;2.85;;;;;;;24.82;38.35;101065.63;5032864;28;20030;-82